createdAt,value
2022-09-11T00:01:27.308Z,13.20
2022-09-11T00:03:57.745Z,13.18
2022-09-11T00:06:30.517Z,13.09
2022-09-11T00:09:04.209Z,13.10
2022-09-11T00:11:43.233Z,13.07
2022-09-11T00:14:13.991Z,13.21
2022-09-11T00:16:45.476Z,13.14
2022-09-11T00:19:19.387Z,13.12
2022-09-11T00:21:47.263Z,13.18
2022-09-11T00:24:14.369Z,13.15
2022-09-11T00:26:42.575Z,13.21
2022-09-11T00:29:10.319Z,13.06
2022-09-11T00:31:37.518Z,13.12
2022-09-11T00:34:04.493Z,13.19
2022-09-11T00:36:31.956Z,13.02
2022-09-11T00:38:59.855Z,13.00
2022-09-11T00:41:40.458Z,13.08
2022-09-11T00:44:16.879Z,12.88
2022-09-11T00:46:55.777Z,13.10
2022-09-11T00:49:28.397Z,13.03
2022-09-11T00:52:12.640Z,12.93
2022-09-11T00:55:05.285Z,12.94
2022-09-11T00:57:39.376Z,12.90
2022-09-11T01:00:08.685Z,12.92
2022-09-11T01:02:38.653Z,12.92
2022-09-11T01:05:07.406Z,12.94
2022-09-11T01:07:36.462Z,12.87
2022-09-11T01:10:06.593Z,12.91
2022-09-11T01:13:04.869Z,12.83
2022-09-11T01:16:20.125Z,12.82
2022-09-11T01:19:24.537Z,12.94
2022-09-11T01:22:35.732Z,12.92
2022-09-11T01:25:36.917Z,12.92
2022-09-11T01:28:40.106Z,12.84
2022-09-11T01:31:12.398Z,12.85
2022-09-11T01:33:50.929Z,12.81
2022-09-11T01:36:28.941Z,12.89
2022-09-11T01:39:02.375Z,12.83
2022-09-11T01:41:50.327Z,12.86
2022-09-11T01:44:27.799Z,12.88
2022-09-11T01:46:55.415Z,12.91
2022-09-11T01:49:56.142Z,12.91
2022-09-11T01:52:29.315Z,12.86
2022-09-11T01:55:13.533Z,12.87
2022-09-11T01:57:53.503Z,13.02
2022-09-11T02:00:20.437Z,12.93
2022-09-11T02:03:30.879Z,12.82
2022-09-11T02:06:04.749Z,12.77
2022-09-11T02:08:50.136Z,12.98
2022-09-11T02:11:18.197Z,12.88
2022-09-11T02:14:13.268Z,12.82
2022-09-11T02:16:56.301Z,12.79
2022-09-11T02:19:29.683Z,12.79
2022-09-11T02:21:58.525Z,12.78
2022-09-11T02:24:27.483Z,12.83
2022-09-11T02:27:12.711Z,12.82
2022-09-11T02:29:39.691Z,12.78
2022-09-11T02:32:07.159Z,12.74
2022-09-11T02:34:39.153Z,12.77
2022-09-11T02:37:25.526Z,12.74
2022-09-11T02:40:12.319Z,12.78
2022-09-11T02:43:39.561Z,12.77
2022-09-11T02:46:29.973Z,12.74
2022-09-11T02:49:09.131Z,12.79
2022-09-11T02:52:00.355Z,12.76
2022-09-11T02:54:50.612Z,12.79
2022-09-11T02:57:43.368Z,12.72
2022-09-11T03:00:11.964Z,12.90
2022-09-11T03:02:43.080Z,12.79
2022-09-11T03:05:11.368Z,12.68
2022-09-11T03:07:39.180Z,12.69
2022-09-11T03:10:08.458Z,12.74
2022-09-11T03:12:36.652Z,12.67
2022-09-11T03:15:04.504Z,12.72
2022-09-11T03:17:32.197Z,12.72
2022-09-11T03:19:59.192Z,12.68
2022-09-11T03:22:26.219Z,12.65
2022-09-11T03:24:53.193Z,12.61
2022-09-11T03:27:21.590Z,12.56
2022-09-11T03:29:48.751Z,12.61
2022-09-11T03:32:16.236Z,12.70
2022-09-11T03:34:43.198Z,12.64
2022-09-11T03:37:10.128Z,12.59
2022-09-11T03:39:37.065Z,12.51
2022-09-11T03:42:04.222Z,12.61
2022-09-11T03:44:31.127Z,12.68
2022-09-11T03:46:58.052Z,12.58
2022-09-11T03:49:24.975Z,12.53
2022-09-11T03:51:51.913Z,12.59
2022-09-11T03:54:18.967Z,12.58
2022-09-11T03:56:45.910Z,12.52
2022-09-11T03:59:13.184Z,12.58
2022-09-11T04:01:40.219Z,12.58
2022-09-11T04:04:07.204Z,12.59
2022-09-11T04:06:34.099Z,12.69
2022-09-11T04:09:01.403Z,12.58
2022-09-11T04:11:28.504Z,12.53
2022-09-11T04:13:55.454Z,12.57
2022-09-11T04:16:22.418Z,12.53
2022-09-11T04:18:49.613Z,12.53
2022-09-11T04:21:18.942Z,12.50
2022-09-11T04:23:50.481Z,12.46
2022-09-11T04:26:21.230Z,12.53
2022-09-11T04:28:48.416Z,12.51
2022-09-11T04:31:18.574Z,12.52
2022-09-11T04:33:46.044Z,12.52
2022-09-11T04:36:19.102Z,12.53
2022-09-11T04:38:47.998Z,12.50
2022-09-11T04:41:16.618Z,12.64
2022-09-11T04:43:43.767Z,12.55
2022-09-11T04:46:17.802Z,12.51
2022-09-11T04:48:49.523Z,12.56
2022-09-11T04:51:30.195Z,12.56
2022-09-11T04:53:59.414Z,12.47
2022-09-11T04:56:29.939Z,12.61
2022-09-11T04:59:03.626Z,12.57
2022-09-11T05:01:32.763Z,12.49
2022-09-11T05:04:01.697Z,12.48
2022-09-11T05:06:30.478Z,12.49
2022-09-11T05:09:03.586Z,12.46
2022-09-11T05:11:30.854Z,12.54
2022-09-11T05:13:59.065Z,12.46
2022-09-11T05:16:28.630Z,12.64
2022-09-11T05:18:56.908Z,12.64
2022-09-11T05:21:26.205Z,12.62
2022-09-11T05:23:57.961Z,12.57
2022-09-11T05:26:29.826Z,12.67
2022-09-11T05:29:11.629Z,12.65
2022-09-11T05:31:38.763Z,12.63
2022-09-11T05:34:06.922Z,12.68
2022-09-11T05:36:35.562Z,12.68
2022-09-11T05:39:04.055Z,12.75
2022-09-11T05:41:30.972Z,12.66
2022-09-11T05:43:59.080Z,12.89
2022-09-11T05:46:26.099Z,12.83
2022-09-11T05:48:53.627Z,12.87
2022-09-11T05:51:22.239Z,12.74
2022-09-11T05:53:54.497Z,12.68
2022-09-11T05:56:24.391Z,12.75
2022-09-11T05:58:51.974Z,12.76
2022-09-11T06:01:22.108Z,12.84
2022-09-11T06:03:50.165Z,12.75
2022-09-11T06:06:19.394Z,12.73
2022-09-11T06:08:47.443Z,12.80
2022-09-11T06:11:17.444Z,12.74
2022-09-11T06:13:46.565Z,12.71
2022-09-11T06:16:20.737Z,12.76
2022-09-11T06:18:49.531Z,12.78
2022-09-11T06:21:20.379Z,12.66
2022-09-11T06:23:49.682Z,12.67
2022-09-11T06:26:24.296Z,12.75
2022-09-11T06:28:52.274Z,12.75
2022-09-11T06:31:24.410Z,12.75
2022-09-11T06:33:51.526Z,12.82
2022-09-11T06:36:30.119Z,12.80
2022-09-11T06:38:58.648Z,12.84
2022-09-11T06:41:27.590Z,12.84
2022-09-11T06:43:54.830Z,12.78
2022-09-11T06:46:24.692Z,12.81
2022-09-11T06:48:52.271Z,12.82
2022-09-11T06:51:21.912Z,12.87
2022-09-11T06:53:49.324Z,12.94
2022-09-11T06:56:18.682Z,12.97
2022-09-11T06:58:46.686Z,12.95
2022-09-11T07:01:19.060Z,12.97
2022-09-11T07:03:49.296Z,12.98
2022-09-11T07:06:23.492Z,12.97
2022-09-11T07:08:53.001Z,12.93
2022-09-11T07:11:20.931Z,12.95
2022-09-11T07:13:48.266Z,12.86
2022-09-11T07:16:16.495Z,12.89
2022-09-11T07:18:46.356Z,12.98
2022-09-11T07:21:22.240Z,12.97
2022-09-11T07:23:52.962Z,12.99
2022-09-11T07:26:20.959Z,13.06
2022-09-11T07:28:52.784Z,13.09
2022-09-11T07:31:23.902Z,13.11
2022-09-11T07:33:52.485Z,13.07
2022-09-11T07:36:23.125Z,13.14
2022-09-11T07:38:51.535Z,13.08
2022-09-11T07:41:22.126Z,13.22
2022-09-11T07:43:58.101Z,13.36
2022-09-11T07:46:26.761Z,13.42
2022-09-11T07:48:55.714Z,13.37
2022-09-11T07:51:23.118Z,13.36
2022-09-11T07:53:52.311Z,13.35
2022-09-11T07:56:23.980Z,13.24
2022-09-11T07:58:52.954Z,13.18
2022-09-11T08:01:26.779Z,13.17
2022-09-11T08:04:00.472Z,13.21
2022-09-11T08:06:31.603Z,13.22
2022-09-11T08:09:02.071Z,13.09
2022-09-11T08:11:31.879Z,13.12
2022-09-11T08:13:58.886Z,13.02
2022-09-11T08:16:27.859Z,13.04
2022-09-11T08:18:55.753Z,13.00
2022-09-11T08:21:24.489Z,12.97
2022-09-11T08:23:51.413Z,13.08
2022-09-11T08:26:30.977Z,13.11
2022-09-11T08:29:00.051Z,13.05
2022-09-11T08:31:28.310Z,12.97
2022-09-11T08:33:56.568Z,12.94
2022-09-11T08:36:24.424Z,12.96
2022-09-11T08:38:52.747Z,12.98
2022-09-11T08:41:48.239Z,13.04
2022-09-11T08:44:31.086Z,13.03
2022-09-11T08:47:08.620Z,12.92
2022-09-11T08:49:43.434Z,12.83
2022-09-11T08:52:14.810Z,12.98
2022-09-11T08:54:43.705Z,12.87
2022-09-11T08:57:54.644Z,12.77
2022-09-11T09:00:40.561Z,12.88
2022-09-11T09:03:36.378Z,12.82
2022-09-11T09:06:40.046Z,12.88
2022-09-11T09:09:23.825Z,12.58
2022-09-11T09:12:17.571Z,12.42
2022-09-11T09:15:33.300Z,12.34
2022-09-11T09:18:32.931Z,12.41
2022-09-11T09:21:45.297Z,12.49
2022-09-11T09:24:21.961Z,12.59
2022-09-11T09:26:53.416Z,12.60
2022-09-11T09:29:23.599Z,12.70
2022-09-11T09:32:06.495Z,12.53
2022-09-11T09:34:39.560Z,12.67
2022-09-11T09:37:22.835Z,12.57
2022-09-11T09:39:51.211Z,12.58
2022-09-11T09:42:36.291Z,12.86
2022-09-11T09:46:01.160Z,12.80
2022-09-11T09:48:33.662Z,12.73
2022-09-11T09:51:03.275Z,12.76
2022-09-11T09:53:42.232Z,12.81
2022-09-11T09:56:16.376Z,12.87
2022-09-11T09:59:19.884Z,12.88
2022-09-11T10:01:52.634Z,13.08
2022-09-11T10:04:28.183Z,13.15
2022-09-11T10:07:14.267Z,13.31
2022-09-11T10:09:54.709Z,13.54
2022-09-11T10:12:28.469Z,13.52
2022-09-11T10:15:03.166Z,13.68
2022-09-11T10:17:30.362Z,13.70
2022-09-11T10:20:23.483Z,13.74
2022-09-11T10:22:52.166Z,13.72
2022-09-11T10:25:29.985Z,13.72
2022-09-11T10:28:11.383Z,13.66
2022-09-11T10:30:42.321Z,13.92
2022-09-11T10:33:38.424Z,13.98
2022-09-11T10:36:09.968Z,13.89
2022-09-11T10:38:48.211Z,14.12
2022-09-11T10:41:28.469Z,14.18
2022-09-11T10:44:12.174Z,14.30
2022-09-11T10:46:42.770Z,14.45
2022-09-11T10:49:19.473Z,14.70
2022-09-11T10:52:19.834Z,15.09
2022-09-11T10:55:15.300Z,15.37
2022-09-11T10:57:58.823Z,15.27
2022-09-11T11:00:30.605Z,15.92
2022-09-11T11:03:24.992Z,15.92
2022-09-11T11:06:37.198Z,15.73
2022-09-11T11:09:08.485Z,15.92
2022-09-11T11:12:21.141Z,16.42
2022-09-11T11:15:30.183Z,16.17
2022-09-11T11:18:21.902Z,16.39
2022-09-11T11:21:28.548Z,16.40
2022-09-11T11:24:13.545Z,16.03
2022-09-11T11:27:13.135Z,15.91
2022-09-11T11:30:22.549Z,15.86
2022-09-11T11:33:33.002Z,15.91
2022-09-11T11:36:09.079Z,15.86
2022-09-11T11:39:02.800Z,15.85
2022-09-11T11:41:39.396Z,15.86
2022-09-11T11:44:12.265Z,16.15
2022-09-11T11:46:48.843Z,16.11
2022-09-11T11:49:27.119Z,16.53
2022-09-11T11:52:33.909Z,16.41
2022-09-11T11:55:18.618Z,16.46
2022-09-11T11:58:34.616Z,16.81
2022-09-11T12:01:09.115Z,16.67
2022-09-11T12:04:12.425Z,16.66
2022-09-11T12:06:39.359Z,17.08
2022-09-11T12:09:10.948Z,16.99
2022-09-11T12:11:39.205Z,16.85
2022-09-11T12:14:07.425Z,16.93
2022-09-11T12:16:35.759Z,17.04
2022-09-11T12:19:22.690Z,17.43
2022-09-11T12:21:52.522Z,17.61
2022-09-11T12:24:52.507Z,17.75
2022-09-11T12:27:49.339Z,17.44
2022-09-11T12:30:20.349Z,17.53
2022-09-11T12:33:02.357Z,17.71
2022-09-11T12:35:49.282Z,17.42
2022-09-11T12:38:31.584Z,17.55
2022-09-11T12:41:14.091Z,17.76
2022-09-11T12:43:41.451Z,17.80
2022-09-11T12:46:20.669Z,17.99
2022-09-11T12:49:18.018Z,18.43
2022-09-11T12:51:50.092Z,18.20
2022-09-11T12:54:39.553Z,18.71
2022-09-11T12:57:21.978Z,18.99
2022-09-11T12:59:59.415Z,18.70
2022-09-11T13:02:51.512Z,18.67
2022-09-11T13:05:34.661Z,19.12
2022-09-11T13:08:22.316Z,18.97
2022-09-11T13:10:49.571Z,18.66
2022-09-11T13:13:40.498Z,18.35
2022-09-11T13:16:44.863Z,18.31
2022-09-11T13:19:17.091Z,18.43
2022-09-11T13:21:45.881Z,18.49
2022-09-11T13:24:23.490Z,18.30
2022-09-11T13:26:55.299Z,18.17
2022-09-11T13:29:29.169Z,18.52
2022-09-11T13:31:59.596Z,18.50
2022-09-11T13:34:29.450Z,18.34
2022-09-11T13:36:57.858Z,18.28
2022-09-11T13:39:27.383Z,18.51
2022-09-11T13:42:05.076Z,18.61
2022-09-11T13:44:58.172Z,18.63
2022-09-11T13:47:28.372Z,18.55
2022-09-11T13:50:02.467Z,18.76
2022-09-11T13:52:34.309Z,18.85
2022-09-11T13:55:10.465Z,18.70
2022-09-11T13:58:01.745Z,18.57
2022-09-11T14:00:48.663Z,18.48
2022-09-11T14:03:29.022Z,18.65
2022-09-11T14:05:59.717Z,18.23
2022-09-11T14:08:37.857Z,17.96
2022-09-11T14:11:15.326Z,17.99
2022-09-11T14:14:07.432Z,18.02
2022-09-11T14:16:46.667Z,18.00
2022-09-11T14:19:20.837Z,17.75
2022-09-11T14:21:50.641Z,17.77
2022-09-11T14:24:32.771Z,17.81
2022-09-11T14:27:02.336Z,17.81
2022-09-11T14:29:33.194Z,17.93
2022-09-11T14:32:39.102Z,17.63
2022-09-11T14:35:10.196Z,17.67
2022-09-11T14:37:45.777Z,17.52
2022-09-11T14:40:19.882Z,17.53
2022-09-11T14:42:47.811Z,17.39
2022-09-11T14:45:25.939Z,17.29
2022-09-11T14:47:53.483Z,17.44
2022-09-11T14:50:21.226Z,17.28
2022-09-11T14:52:48.151Z,17.49
2022-09-11T14:55:17.661Z,17.61
2022-09-11T14:57:46.599Z,17.52
2022-09-11T15:00:18.883Z,17.69
2022-09-11T15:02:46.507Z,17.53
2022-09-11T15:05:16.906Z,17.26
2022-09-11T15:07:46.917Z,17.40
2022-09-11T15:10:15.174Z,17.19
2022-09-11T15:12:42.822Z,17.21
2022-09-11T15:15:10.357Z,17.14
2022-09-11T15:17:37.298Z,17.09
2022-09-11T15:20:07.307Z,16.90
2022-09-11T15:22:35.224Z,16.74
2022-09-11T15:25:03.606Z,16.80
2022-09-11T15:27:31.409Z,16.77
2022-09-11T15:29:58.385Z,16.73
2022-09-11T15:32:25.397Z,16.63
2022-09-11T15:34:53.058Z,16.68
2022-09-11T15:37:19.965Z,16.63
2022-09-11T15:39:46.901Z,16.54
2022-09-11T15:42:13.857Z,16.39
2022-09-11T15:44:40.957Z,16.44
2022-09-11T15:47:07.921Z,16.46
2022-09-11T15:49:44.533Z,16.30
2022-09-11T15:52:12.120Z,16.25
2022-09-11T15:54:39.103Z,16.28
2022-09-11T15:57:07.603Z,16.16
2022-09-11T15:59:34.582Z,16.10
2022-09-11T16:02:01.716Z,15.96
2022-09-11T16:04:32.293Z,16.06
2022-09-11T16:06:59.880Z,15.96
2022-09-11T16:09:30.073Z,15.89
2022-09-11T16:11:57.644Z,15.86
2022-09-11T16:14:27.889Z,15.78
2022-09-11T16:16:56.693Z,15.81
2022-09-11T16:19:28.888Z,15.74
2022-09-11T16:21:58.241Z,15.77
2022-09-11T16:24:27.234Z,15.61
2022-09-11T16:26:56.105Z,15.67
2022-09-11T16:29:51.093Z,15.54
2022-09-11T16:32:28.288Z,15.72
2022-09-11T16:34:57.955Z,15.64
2022-09-11T16:37:26.061Z,15.61
2022-09-11T16:39:53.179Z,15.46
2022-09-11T16:42:21.259Z,15.39
2022-09-11T16:44:49.801Z,15.34
2022-09-11T16:47:17.907Z,15.44
2022-09-11T16:52:32.644Z,15.15
2022-09-11T16:54:59.742Z,15.25
2022-09-11T16:57:30.093Z,15.05
2022-09-11T16:59:57.077Z,15.03
2022-09-11T17:02:24.074Z,14.92
2022-09-11T17:04:51.082Z,14.65
2022-09-11T17:07:18.591Z,14.58
2022-09-11T17:09:48.723Z,14.63
2022-09-11T17:12:17.914Z,14.60
2022-09-11T17:14:44.980Z,14.46
2022-09-11T17:17:11.950Z,14.59
2022-09-11T17:19:39.049Z,14.43
2022-09-11T17:22:08.377Z,14.16
2022-09-11T17:24:35.387Z,13.92
2022-09-11T17:27:02.753Z,13.90
2022-09-11T17:29:29.700Z,13.88
2022-09-11T17:32:16.865Z,13.84
2022-09-11T17:34:43.542Z,13.95
2022-09-11T17:37:10.536Z,13.83
2022-09-11T17:39:37.515Z,13.83
2022-09-11T17:42:11.004Z,13.65
2022-09-11T17:44:41.415Z,13.89
2022-09-11T17:47:08.747Z,13.74
2022-09-11T17:49:37.479Z,13.75
2022-09-11T17:52:04.460Z,13.73
2022-09-11T17:54:31.482Z,13.75
2022-09-11T17:56:59.131Z,13.68
2022-09-11T17:59:26.084Z,13.63
2022-09-11T18:01:53.369Z,13.75
2022-09-11T18:04:20.409Z,13.85
2022-09-11T18:06:47.490Z,13.57
2022-09-11T18:09:19.685Z,13.73
2022-09-11T18:11:49.983Z,13.81
2022-09-11T18:14:18.853Z,13.75
2022-09-11T18:16:47.849Z,13.76
2022-09-11T18:19:18.013Z,13.79
2022-09-11T18:21:49.858Z,13.68
2022-09-11T18:24:20.078Z,13.63
2022-09-11T18:26:51.358Z,13.68
2022-09-11T18:29:21.284Z,13.68
2022-09-11T18:31:53.370Z,13.78
2022-09-11T18:34:26.518Z,13.89
2022-09-11T18:36:54.066Z,13.73
2022-09-11T18:39:21.748Z,13.69
2022-09-11T18:41:50.346Z,13.68
2022-09-11T18:44:20.519Z,13.75
2022-09-11T18:46:48.508Z,13.77
2022-09-11T18:49:16.533Z,13.72
2022-09-11T18:51:43.964Z,13.73
2022-09-11T18:54:17.418Z,13.71
2022-09-11T18:56:45.521Z,13.82
2022-09-11T18:59:13.562Z,13.82
2022-09-11T19:01:41.279Z,13.76
2022-09-11T19:04:14.156Z,13.78
2022-09-11T19:06:41.215Z,13.79
2022-09-11T19:09:12.464Z,13.80
2022-09-11T19:11:40.419Z,13.71
2022-09-11T19:14:10.850Z,13.73
2022-09-11T19:16:39.223Z,13.72
2022-09-11T19:19:07.575Z,13.79
2022-09-11T19:21:36.210Z,13.77
2022-09-11T19:24:03.309Z,13.71
2022-09-11T19:26:38.989Z,13.68
2022-09-11T19:29:08.740Z,13.74
2022-09-11T19:31:37.257Z,13.74
2022-09-11T19:34:04.286Z,13.90
2022-09-11T19:36:35.340Z,13.85
2022-09-11T19:39:03.526Z,13.71
2022-09-11T19:41:34.165Z,13.76
2022-09-11T19:44:03.277Z,13.79
2022-09-11T19:46:32.977Z,13.77
2022-09-11T19:49:03.191Z,13.71
2022-09-11T19:51:33.241Z,13.73
2022-09-11T19:54:02.768Z,13.93
2022-09-11T19:56:31.560Z,13.87
2022-09-11T19:58:59.833Z,13.76
2022-09-11T20:01:29.549Z,13.73
2022-09-11T20:03:58.227Z,13.75
2022-09-11T20:06:33.292Z,13.81
2022-09-11T20:09:29.759Z,13.77
2022-09-11T20:11:48.448Z,13.78
2022-09-11T20:14:15.560Z,13.82
2022-09-11T20:16:42.592Z,13.83
2022-09-11T20:19:10.480Z,13.81
2022-09-11T20:21:37.944Z,13.87
2022-09-11T20:24:07.313Z,13.90
2022-09-11T20:26:35.479Z,13.91
2022-09-11T20:29:11.847Z,13.83
2022-09-11T20:31:46.934Z,13.85
2022-09-11T20:34:16.141Z,13.91
2022-09-11T20:36:43.097Z,13.89
2022-09-11T20:39:13.728Z,14.12
2022-09-11T20:41:40.895Z,14.00
2022-09-11T20:44:07.856Z,14.01
2022-09-11T20:46:34.886Z,13.99
2022-09-11T20:49:03.081Z,13.91
2022-09-11T20:51:30.203Z,13.91
2022-09-11T20:53:57.196Z,14.05
2022-09-11T20:56:24.220Z,13.88
2022-09-11T20:58:52.195Z,14.00
2022-09-11T21:01:22.707Z,13.90
2022-09-11T21:03:55.860Z,13.99
2022-09-11T21:06:28.355Z,13.93
2022-09-11T21:09:01.371Z,13.83
2022-09-11T21:11:30.685Z,13.74
2022-09-11T21:13:58.733Z,13.80
2022-09-11T21:16:25.758Z,13.91
2022-09-11T21:18:56.258Z,13.83
2022-09-11T21:21:25.135Z,13.76
2022-09-11T21:23:56.834Z,13.82
2022-09-11T21:26:26.152Z,13.78
2022-09-11T21:28:53.149Z,13.74
2022-09-11T21:31:20.114Z,13.71
2022-09-11T21:33:47.099Z,13.60
2022-09-11T21:36:14.166Z,13.56
2022-09-11T21:38:41.363Z,13.53
2022-09-11T21:41:10.499Z,13.60
2022-09-11T21:43:38.501Z,13.54
2022-09-11T21:46:07.813Z,13.52
2022-09-11T21:48:40.489Z,13.53
2022-09-11T21:51:17.077Z,13.45
2022-09-11T21:53:46.736Z,13.46
2022-09-11T21:56:27.175Z,13.40
2022-09-11T21:58:54.917Z,13.37
2022-09-11T22:01:23.641Z,13.51
2022-09-11T22:03:51.643Z,13.43
2022-09-11T22:06:20.390Z,13.36
2022-09-11T22:08:48.195Z,13.38
2022-09-11T22:11:16.433Z,13.30
2022-09-11T22:13:43.832Z,13.35
2022-09-11T22:16:15.226Z,13.31
2022-09-11T22:18:42.999Z,13.24
2022-09-11T22:21:10.750Z,13.21
2022-09-11T22:23:37.745Z,13.15
2022-09-11T22:26:17.994Z,13.22
2022-09-11T22:28:45.267Z,13.15
2022-09-11T22:31:24.119Z,13.21
2022-09-11T22:33:52.238Z,13.06
2022-09-11T22:36:26.123Z,13.17
2022-09-11T22:38:53.483Z,13.14
2022-09-11T22:41:21.332Z,13.15
2022-09-11T22:43:50.023Z,13.12
2022-09-11T22:46:20.174Z,13.12
2022-09-11T22:48:47.835Z,13.06
2022-09-11T22:51:14.844Z,13.11
2022-09-11T22:53:41.893Z,13.15
2022-09-11T22:56:09.687Z,12.99
2022-09-11T22:58:38.422Z,12.94
2022-09-11T23:01:08.050Z,13.06
2022-09-11T23:03:35.775Z,12.98
2022-09-11T23:06:22.395Z,12.90
2022-09-11T23:08:49.709Z,12.98
2022-09-11T23:11:19.942Z,12.93
2022-09-11T23:13:48.643Z,12.89
2022-09-11T23:16:29.155Z,12.86
2022-09-11T23:18:59.309Z,12.89
2022-09-11T23:21:27.797Z,12.84
2022-09-11T23:23:56.781Z,12.87
2022-09-11T23:26:26.613Z,12.90
2022-09-11T23:28:54.649Z,12.93
2022-09-11T23:31:33.065Z,13.09
2022-09-11T23:34:03.807Z,12.96
2022-09-11T23:36:31.779Z,12.82
2022-09-11T23:38:59.559Z,12.78
2022-09-11T23:41:27.351Z,12.80
2022-09-11T23:43:55.010Z,12.84
2022-09-11T23:46:22.359Z,12.95
2022-09-11T23:48:49.851Z,12.83
2022-09-11T23:51:17.115Z,12.70
2022-09-11T23:53:45.207Z,12.78
2022-09-11T23:56:14.490Z,12.80
2022-09-11T23:58:42.441Z,12.72
